createdAt,value
2022-09-06T00:01:17.720Z,2.50
2022-09-06T00:03:46.609Z,2.58
2022-09-06T00:06:18.043Z,2.40
2022-09-06T00:08:48.505Z,2.72
2022-09-06T00:11:18.204Z,2.90
2022-09-06T00:13:47.096Z,2.67
2022-09-06T00:16:30.105Z,3.00
2022-09-06T00:18:58.941Z,2.50
2022-09-06T00:21:30.860Z,2.45
2022-09-06T00:23:59.266Z,2.70
2022-09-06T00:26:27.603Z,2.55
2022-09-06T00:28:55.825Z,2.67
2022-09-06T00:31:26.633Z,2.53
2022-09-06T00:33:54.775Z,2.58
2022-09-06T00:36:23.382Z,2.65
2022-09-06T00:38:51.680Z,2.50
2022-09-06T00:41:20.172Z,2.65
2022-09-06T00:43:50.193Z,2.70
2022-09-06T00:46:28.226Z,2.90
2022-09-06T00:49:04.172Z,2.75
2022-09-06T00:51:34.776Z,3.03
2022-09-06T00:54:06.961Z,2.38
2022-09-06T00:56:41.179Z,2.88
2022-09-06T00:59:09.873Z,2.75
2022-09-06T01:01:38.160Z,2.97
2022-09-06T01:04:06.947Z,2.88
2022-09-06T01:07:10.435Z,2.60
2022-09-06T01:09:47.674Z,2.92
2022-09-06T01:13:05.208Z,3.20
2022-09-06T01:15:55.276Z,2.67
2022-09-06T01:19:13.583Z,2.95
2022-09-06T01:21:54.624Z,3.00
2022-09-06T01:24:50.214Z,2.65
2022-09-06T01:27:41.349Z,2.78
2022-09-06T01:30:14.599Z,2.95
2022-09-06T01:32:54.017Z,3.00
2022-09-06T01:35:57.612Z,2.95
2022-09-06T01:38:26.196Z,2.65
2022-09-06T01:40:54.569Z,2.65
2022-09-06T01:43:36.894Z,2.75
2022-09-06T01:46:45.891Z,3.33
2022-09-06T01:49:29.010Z,2.50
2022-09-06T01:52:14.171Z,3.08
2022-09-06T01:55:09.576Z,2.67
2022-09-06T01:57:37.725Z,2.42
2022-09-06T02:00:15.691Z,2.90
2022-09-06T02:03:18.640Z,2.55
2022-09-06T02:05:56.065Z,2.40
2022-09-06T02:08:34.518Z,2.50
2022-09-06T02:11:08.483Z,2.88
2022-09-06T02:13:47.520Z,2.70
2022-09-06T02:16:23.475Z,2.85
2022-09-06T02:19:12.714Z,2.83
2022-09-06T02:21:46.026Z,3.05
2022-09-06T02:24:23.496Z,3.08
2022-09-06T02:26:51.923Z,2.88
2022-09-06T02:29:20.178Z,2.40
2022-09-06T02:32:02.779Z,2.58
2022-09-06T02:34:56.561Z,3.10
2022-09-06T02:37:26.176Z,2.97
2022-09-06T02:39:56.131Z,3.10
2022-09-06T02:42:25.194Z,2.97
2022-09-06T02:44:53.150Z,3.10
2022-09-06T02:47:22.197Z,3.00
2022-09-06T02:49:50.716Z,3.28
2022-09-06T02:52:19.034Z,2.42
2022-09-06T02:54:47.344Z,3.33
2022-09-06T02:57:15.572Z,3.55
2022-09-06T02:59:43.887Z,3.58
2022-09-06T03:02:12.312Z,2.97
2022-09-06T03:04:40.216Z,2.95
2022-09-06T03:07:08.581Z,3.10
2022-09-06T03:09:36.812Z,2.78
2022-09-06T03:12:05.240Z,3.10
2022-09-06T03:14:36.126Z,3.35
2022-09-06T03:17:04.933Z,3.05
2022-09-06T03:19:33.211Z,3.57
2022-09-06T03:22:01.530Z,2.63
2022-09-06T03:24:29.743Z,2.55
2022-09-06T03:26:58.236Z,2.85
2022-09-06T03:29:26.584Z,2.80
2022-09-06T03:31:54.853Z,2.97
2022-09-06T03:34:23.103Z,3.38
2022-09-06T03:36:51.497Z,3.08
2022-09-06T03:39:19.754Z,3.17
2022-09-06T03:41:47.997Z,3.08
2022-09-06T03:44:16.406Z,3.33
2022-09-06T03:46:44.622Z,2.92
2022-09-06T03:49:13.057Z,2.92
2022-09-06T03:51:41.610Z,3.15
2022-09-06T03:54:09.869Z,3.10
2022-09-06T03:56:38.244Z,2.80
2022-09-06T03:59:07.134Z,3.40
2022-09-06T04:01:36.210Z,3.05
2022-09-06T04:04:04.623Z,3.15
2022-09-06T04:06:32.832Z,2.90
2022-09-06T04:09:01.093Z,3.72
2022-09-06T04:11:29.385Z,3.20
2022-09-06T04:13:57.645Z,2.97
2022-09-06T04:16:25.995Z,3.20
2022-09-06T04:18:54.320Z,3.72
2022-09-06T04:21:23.330Z,3.30
2022-09-06T04:23:51.704Z,3.85
2022-09-06T04:26:20.063Z,3.47
2022-09-06T04:28:48.408Z,3.30
2022-09-06T04:31:16.652Z,3.42
2022-09-06T04:33:44.500Z,2.92
2022-09-06T04:36:12.952Z,3.53
2022-09-06T04:38:44.747Z,3.23
2022-09-06T04:41:17.051Z,3.10
2022-09-06T04:43:45.663Z,3.45
2022-09-06T04:46:24.938Z,3.45
2022-09-06T04:48:55.120Z,3.00
2022-09-06T04:51:24.653Z,3.20
2022-09-06T04:53:53.284Z,3.10
2022-09-06T04:56:26.169Z,3.00
2022-09-06T04:58:55.708Z,3.20
2022-09-06T05:01:26.186Z,3.08
2022-09-06T05:03:56.976Z,3.22
2022-09-06T05:08:55.545Z,3.35
2022-09-06T05:11:23.481Z,3.47
2022-09-06T05:13:51.868Z,3.17
2022-09-06T05:16:19.833Z,3.33
2022-09-06T05:18:48.300Z,3.35
2022-09-06T05:21:16.612Z,3.08
2022-09-06T05:23:45.356Z,3.13
2022-09-06T05:26:13.349Z,3.40
2022-09-06T05:28:41.304Z,3.08
2022-09-06T05:31:13.246Z,3.20
2022-09-06T05:33:41.281Z,3.15
2022-09-06T05:36:09.992Z,3.03
2022-09-06T05:38:37.961Z,3.30
2022-09-06T05:41:06.452Z,3.17
2022-09-06T05:43:34.298Z,3.33
2022-09-06T05:46:02.373Z,3.38
2022-09-06T05:48:36.039Z,3.03
2022-09-06T05:51:12.661Z,4.07
2022-09-06T05:53:44.497Z,3.33
2022-09-06T05:56:14.517Z,3.70
2022-09-06T05:58:43.005Z,3.80
2022-09-06T06:01:23.054Z,3.90
2022-09-06T06:03:58.906Z,3.88
2022-09-06T06:06:33.516Z,3.38
2022-09-06T06:09:01.900Z,4.20
2022-09-06T06:11:31.309Z,3.65
2022-09-06T06:13:59.412Z,3.28
2022-09-06T06:16:27.523Z,3.67
2022-09-06T06:18:56.016Z,3.80
2022-09-06T06:21:30.596Z,3.42
2022-09-06T06:24:03.000Z,3.42
2022-09-06T06:26:35.528Z,3.55
2022-09-06T06:29:07.915Z,3.20
2022-09-06T06:31:38.511Z,3.30
2022-09-06T06:34:08.002Z,3.22
2022-09-06T06:36:37.084Z,3.92
2022-09-06T06:39:08.571Z,4.07
2022-09-06T06:41:37.486Z,3.65
2022-09-06T06:44:23.255Z,3.80
2022-09-06T06:46:52.032Z,4.10
2022-09-06T06:49:20.052Z,3.58
2022-09-06T06:51:48.175Z,3.80
2022-09-06T06:54:16.119Z,3.75
2022-09-06T06:56:45.600Z,4.13
2022-09-06T06:59:14.417Z,3.80
2022-09-06T07:01:42.509Z,3.90
2022-09-06T07:04:12.184Z,4.22
2022-09-06T07:12:33.323Z,4.18
2022-09-06T07:15:01.196Z,4.05
2022-09-06T07:17:29.646Z,4.07
2022-09-06T07:20:13.169Z,4.03
2022-09-06T07:22:42.683Z,3.30
2022-09-06T07:25:14.448Z,3.88
2022-09-06T07:30:19.939Z,3.97
2022-09-06T07:35:16.714Z,4.10
2022-09-06T07:38:01.649Z,3.92
2022-09-06T07:40:31.264Z,4.32
2022-09-06T07:43:00.106Z,3.88
2022-09-06T07:45:28.196Z,4.43
2022-09-06T07:48:00.703Z,4.88
2022-09-06T07:50:47.433Z,4.82
2022-09-06T07:53:25.992Z,4.25
2022-09-06T07:56:00.859Z,3.22
2022-09-06T07:58:30.810Z,3.70
2022-09-06T08:01:39.055Z,3.80
2022-09-06T08:04:13.976Z,4.95
2022-09-06T08:09:37.229Z,3.80
2022-09-06T08:12:09.245Z,3.40
2022-09-06T08:14:37.681Z,3.80
2022-09-06T08:17:05.619Z,3.80
2022-09-06T08:19:34.517Z,4.22
2022-09-06T08:22:02.700Z,4.03
2022-09-06T08:24:31.164Z,4.05
2022-09-06T08:26:59.140Z,3.22
2022-09-06T08:29:27.543Z,3.55
2022-09-06T08:31:55.897Z,3.55
2022-09-06T08:34:24.211Z,4.22
2022-09-06T08:36:52.320Z,3.50
2022-09-06T08:39:20.358Z,3.67
2022-09-06T08:41:55.888Z,3.60
2022-09-06T08:47:26.251Z,3.90
2022-09-06T08:50:06.050Z,4.40
2022-09-06T08:53:23.024Z,4.50
2022-09-06T08:56:18.523Z,4.00
2022-09-06T08:59:08.171Z,4.57
2022-09-06T09:02:07.132Z,4.60
2022-09-06T09:04:43.601Z,4.78
2022-09-06T09:07:38.721Z,5.18
2022-09-06T09:10:17.445Z,4.45
2022-09-06T09:12:49.032Z,5.13
2022-09-06T09:15:20.741Z,4.72
2022-09-06T09:17:51.089Z,4.53
2022-09-06T09:20:19.209Z,5.25
2022-09-06T09:22:47.854Z,4.00
2022-09-06T09:25:23.694Z,4.40
2022-09-06T09:27:57.792Z,3.80
2022-09-06T09:30:49.981Z,4.10
2022-09-06T09:33:30.307Z,4.43
2022-09-06T09:36:13.142Z,3.90
2022-09-06T09:38:46.854Z,3.97
2022-09-06T09:41:32.937Z,4.03
2022-09-06T09:44:06.300Z,3.50
2022-09-06T09:46:39.786Z,4.40
2022-09-06T09:49:11.837Z,4.03
2022-09-06T09:52:06.953Z,3.80
2022-09-06T09:54:39.466Z,3.88
2022-09-06T09:57:17.874Z,3.50
2022-09-06T10:00:13.862Z,3.53
2022-09-06T10:02:43.456Z,3.08
2022-09-06T10:05:16.867Z,3.60
2022-09-06T10:07:52.993Z,4.03
2022-09-06T10:10:24.122Z,3.30
2022-09-06T10:13:31.811Z,3.13
2022-09-06T10:16:03.222Z,3.42
2022-09-06T10:18:43.685Z,3.75
2022-09-06T10:21:16.091Z,3.28
2022-09-06T10:24:30.580Z,3.47
2022-09-06T10:27:03.650Z,3.13
2022-09-06T10:29:41.328Z,3.00
2022-09-06T10:32:30.961Z,3.10
2022-09-06T10:35:21.100Z,3.50
2022-09-06T10:38:32.300Z,2.33
2022-09-06T10:41:11.349Z,2.83
2022-09-06T10:44:31.603Z,3.05
2022-09-06T10:47:12.257Z,3.22
2022-09-06T10:49:55.457Z,3.38
2022-09-06T10:52:41.075Z,3.22
2022-09-06T10:55:15.977Z,2.83
2022-09-06T11:00:47.560Z,2.67
2022-09-06T11:06:32.389Z,2.80
2022-09-06T11:09:55.507Z,2.65
2022-09-06T11:12:46.246Z,2.20
2022-09-06T11:15:17.704Z,2.45
2022-09-06T11:18:05.654Z,2.13
2022-09-06T11:20:45.873Z,2.13
2022-09-06T11:23:48.247Z,1.95
2022-09-06T11:26:40.044Z,1.95
2022-09-06T11:29:23.100Z,2.10
2022-09-06T11:34:56.511Z,2.10
2022-09-06T11:37:39.660Z,2.08
2022-09-06T11:43:01.480Z,1.90
2022-09-06T11:45:52.626Z,1.65
2022-09-06T11:48:27.124Z,1.67
2022-09-06T11:50:58.381Z,2.00
2022-09-06T11:53:59.909Z,1.58
2022-09-06T11:56:48.177Z,1.52
2022-09-06T11:59:19.773Z,1.80
2022-09-06T12:02:37.845Z,1.83
2022-09-06T12:05:07.440Z,1.80
2022-09-06T12:10:41.880Z,1.55
2022-09-06T12:13:44.920Z,1.42
2022-09-06T12:16:15.561Z,1.50
2022-09-06T12:18:46.668Z,1.35
2022-09-06T12:21:35.315Z,1.40
2022-09-06T12:24:06.396Z,1.40
2022-09-06T12:27:16.016Z,1.48
2022-09-06T12:30:04.309Z,1.40
2022-09-06T12:32:56.138Z,1.20
2022-09-06T12:38:25.471Z,1.10
2022-09-06T12:40:58.916Z,1.30
2022-09-06T12:43:27.053Z,0.90
2022-09-06T12:45:55.428Z,1.10
2022-09-06T12:48:33.371Z,1.00
2022-09-06T12:51:09.198Z,1.02
2022-09-06T12:53:38.276Z,0.98
2022-09-06T12:58:40.923Z,1.13
2022-09-06T13:01:33.706Z,1.25
2022-09-06T13:04:09.952Z,1.58
2022-09-06T13:06:45.729Z,2.00
2022-09-06T13:09:19.099Z,1.90
2022-09-06T13:11:52.096Z,1.77
2022-09-06T13:14:31.225Z,1.58
2022-09-06T13:16:59.897Z,1.33
2022-09-06T13:19:37.190Z,1.60
2022-09-06T13:22:10.816Z,1.40
2022-09-06T13:24:57.236Z,1.50
2022-09-06T13:27:31.228Z,1.30
2022-09-06T13:30:09.125Z,1.30
2022-09-06T13:32:46.852Z,1.42
2022-09-06T13:35:29.518Z,1.60
2022-09-06T13:38:39.733Z,1.52
2022-09-06T13:41:37.063Z,1.50
2022-09-06T13:44:19.862Z,1.63
2022-09-06T13:46:53.797Z,1.63
2022-09-06T13:49:23.785Z,1.90
2022-09-06T13:51:54.515Z,1.85
2022-09-06T13:54:22.920Z,1.52
2022-09-06T13:56:52.077Z,1.45
2022-09-06T14:02:03.143Z,1.55
2022-09-06T14:04:32.524Z,1.58
2022-09-06T14:07:00.839Z,1.50
2022-09-06T14:09:29.973Z,1.45
2022-09-06T14:11:57.850Z,1.52
2022-09-06T14:14:25.837Z,1.92
2022-09-06T14:16:54.089Z,1.75
2022-09-06T14:19:22.421Z,1.70
2022-09-06T14:21:50.713Z,1.63
2022-09-06T14:24:19.034Z,1.50
2022-09-06T14:26:47.074Z,1.65
2022-09-06T14:29:15.049Z,1.60
2022-09-06T14:31:42.966Z,1.40
2022-09-06T14:34:13.040Z,1.50
2022-09-06T14:36:41.135Z,1.55
2022-09-06T14:39:09.180Z,1.58
2022-09-06T14:41:37.201Z,1.38
2022-09-06T14:44:05.508Z,1.92
2022-09-06T14:46:33.911Z,1.87
2022-09-06T14:49:09.990Z,1.43
2022-09-06T14:51:39.681Z,1.70
2022-09-06T14:54:14.494Z,1.90
2022-09-06T14:56:44.078Z,1.60
2022-09-06T14:59:12.669Z,1.88
2022-09-06T15:02:05.553Z,1.83
2022-09-06T15:04:33.635Z,1.67
2022-09-06T15:07:01.975Z,1.80
2022-09-06T15:09:30.259Z,2.33
2022-09-06T15:11:58.444Z,1.92
2022-09-06T15:14:31.424Z,1.60
2022-09-06T15:17:00.018Z,1.48
2022-09-06T15:19:30.082Z,1.80
2022-09-06T15:22:00.137Z,1.70
2022-09-06T15:24:28.801Z,1.77
2022-09-06T15:26:57.121Z,1.80
2022-09-06T15:29:27.014Z,2.20
2022-09-06T15:31:56.093Z,1.67
2022-09-06T15:34:26.620Z,2.00
2022-09-06T15:36:56.508Z,1.98
2022-09-06T15:39:29.287Z,1.95
2022-09-06T15:41:57.995Z,2.10
2022-09-06T15:44:26.400Z,2.05
2022-09-06T15:46:58.110Z,2.50
2022-09-06T15:49:32.014Z,2.30
2022-09-06T15:52:03.215Z,2.15
2022-09-06T15:54:50.511Z,2.00
2022-09-06T15:57:18.907Z,1.90
2022-09-06T15:59:47.244Z,2.07
2022-09-06T16:02:15.345Z,2.20
2022-09-06T16:04:43.462Z,2.20
2022-09-06T16:07:11.837Z,2.03
2022-09-06T16:09:40.238Z,2.03
2022-09-06T16:12:09.086Z,1.90
2022-09-06T16:14:38.164Z,2.30
2022-09-06T16:17:06.603Z,2.15
2022-09-06T16:19:34.870Z,2.30
2022-09-06T16:22:04.259Z,2.08
2022-09-06T16:27:00.562Z,2.10
2022-09-06T16:29:28.439Z,2.03
2022-09-06T16:31:59.780Z,2.00
2022-09-06T16:34:28.536Z,2.13
2022-09-06T16:36:56.983Z,2.00
2022-09-06T16:39:25.128Z,2.20
2022-09-06T16:41:53.490Z,2.15
2022-09-06T16:44:21.776Z,2.47
2022-09-06T16:46:50.751Z,2.50
2022-09-06T16:49:19.269Z,2.55
2022-09-06T16:51:50.075Z,2.22
2022-09-06T16:54:19.021Z,2.25
2022-09-06T16:56:47.787Z,2.53
2022-09-06T16:59:17.104Z,2.60
2022-09-06T17:01:45.838Z,2.20
2022-09-06T17:04:14.599Z,2.53
2022-09-06T17:06:44.554Z,2.58
2022-09-06T17:09:17.631Z,2.47
2022-09-06T17:11:49.674Z,2.10
2022-09-06T17:14:18.975Z,2.70
2022-09-06T17:17:05.427Z,2.47
2022-09-06T17:19:43.055Z,2.20
2022-09-06T17:22:13.077Z,2.50
2022-09-06T17:27:10.012Z,2.80
2022-09-06T17:29:39.923Z,3.08
2022-09-06T17:32:10.180Z,2.70
2022-09-06T17:34:40.001Z,3.03
2022-09-06T17:37:08.674Z,3.20
2022-09-06T17:39:37.354Z,2.83
2022-09-06T17:42:06.047Z,3.25
2022-09-06T17:44:34.673Z,2.97
2022-09-06T17:47:13.335Z,2.92
2022-09-06T17:49:43.084Z,2.83
2022-09-06T17:52:11.911Z,2.85
2022-09-06T17:54:40.159Z,2.60
2022-09-06T17:57:08.447Z,2.70
2022-09-06T17:59:36.774Z,3.08
2022-09-06T18:02:05.512Z,3.10
2022-09-06T18:04:33.992Z,3.15
2022-09-06T18:07:02.368Z,2.78
2022-09-06T18:09:30.710Z,2.80
2022-09-06T18:11:59.108Z,2.85
2022-09-06T18:14:28.492Z,2.95
2022-09-06T18:16:56.976Z,2.87
2022-09-06T18:19:26.073Z,2.95
2022-09-06T18:21:56.989Z,2.80
2022-09-06T18:24:25.236Z,2.40
2022-09-06T18:26:53.516Z,2.53
2022-09-06T18:29:22.071Z,3.00
2022-09-06T18:31:53.454Z,2.85
2022-09-06T18:34:22.005Z,2.70
2022-09-06T18:36:50.408Z,2.90
2022-09-06T18:39:20.236Z,2.72
2022-09-06T18:42:14.486Z,2.60
2022-09-06T18:44:43.903Z,2.70
2022-09-06T18:47:12.544Z,2.50
2022-09-06T18:49:44.121Z,2.58
2022-09-06T18:52:12.823Z,2.70
2022-09-06T18:54:41.178Z,3.03
2022-09-06T18:57:09.482Z,2.72
2022-09-06T18:59:37.967Z,2.80
2022-09-06T19:02:06.407Z,2.85
2022-09-06T19:04:34.471Z,2.67
2022-09-06T19:07:03.767Z,2.92
2022-09-06T19:09:32.991Z,3.08
2022-09-06T19:12:01.799Z,3.00
2022-09-06T19:14:30.125Z,3.08
2022-09-06T19:16:58.455Z,3.50
2022-09-06T19:19:26.738Z,3.00
2022-09-06T19:21:55.001Z,3.08
2022-09-06T19:24:24.487Z,3.45
2022-09-06T19:26:53.273Z,2.97
2022-09-06T19:29:21.738Z,2.72
2022-09-06T19:31:49.771Z,2.88
2022-09-06T19:34:18.424Z,2.70
2022-09-06T19:36:49.954Z,2.70
2022-09-06T19:39:18.013Z,2.80
2022-09-06T19:41:47.309Z,2.47
2022-09-06T19:44:17.068Z,2.25
2022-09-06T19:46:46.767Z,2.58
2022-09-06T19:49:23.269Z,2.40
2022-09-06T19:51:52.839Z,2.60
2022-09-06T19:54:21.220Z,2.43
2022-09-06T19:56:49.163Z,2.13
2022-09-06T19:59:17.830Z,3.05
2022-09-06T20:01:47.541Z,2.63
2022-09-06T20:04:16.146Z,2.60
2022-09-06T20:06:44.208Z,2.45
2022-09-06T20:09:13.367Z,2.60
2022-09-06T20:11:42.697Z,2.10
2022-09-06T20:14:12.474Z,2.85
2022-09-06T20:16:42.376Z,2.67
2022-09-06T20:19:14.122Z,2.40
2022-09-06T20:21:42.982Z,2.72
2022-09-06T20:24:11.214Z,2.35
2022-09-06T20:26:40.282Z,2.53
2022-09-06T20:29:08.822Z,2.42
2022-09-06T20:31:37.989Z,2.55
2022-09-06T20:34:07.310Z,2.80
2022-09-06T20:36:35.848Z,2.50
2022-09-06T20:39:04.392Z,2.72
2022-09-06T20:41:33.669Z,2.42
2022-09-06T20:44:01.984Z,2.28
2022-09-06T20:46:35.478Z,2.72
2022-09-06T20:49:05.051Z,3.70
2022-09-06T20:51:35.683Z,2.30
2022-09-06T20:54:05.653Z,2.60
2022-09-06T20:56:38.680Z,2.95
2022-09-06T20:59:10.905Z,3.13
2022-09-06T21:01:45.816Z,2.58
2022-09-06T21:04:16.441Z,2.50
2022-09-06T21:06:46.530Z,3.22
2022-09-06T21:09:15.040Z,2.25
2022-09-06T21:11:43.751Z,3.33
2022-09-06T21:14:12.755Z,2.67
2022-09-06T21:16:41.153Z,2.70
2022-09-06T21:19:11.225Z,2.65
2022-09-06T21:21:40.100Z,2.80
2022-09-06T21:24:10.479Z,3.22
2022-09-06T21:26:39.049Z,2.35
2022-09-06T21:29:07.485Z,2.42
2022-09-06T21:31:37.349Z,3.13
2022-09-06T21:34:15.692Z,2.90
2022-09-06T21:36:45.182Z,2.60
2022-09-06T21:39:13.893Z,2.20
2022-09-06T21:41:43.397Z,2.25
2022-09-06T21:44:12.287Z,2.38
2022-09-06T21:46:41.087Z,2.83
2022-09-06T21:49:13.496Z,2.47
2022-09-06T21:51:42.569Z,2.88
2022-09-06T22:07:42.403Z,2.40
2022-09-06T22:10:10.235Z,2.92
2022-09-06T22:12:38.558Z,2.78
2022-09-06T22:17:50.180Z,2.22
2022-09-06T22:20:18.608Z,3.08
2022-09-06T22:22:46.520Z,2.83
2022-09-06T22:25:15.232Z,2.63
2022-09-06T22:27:43.171Z,2.20
2022-09-06T22:30:12.360Z,2.58
2022-09-06T22:32:40.656Z,2.85
2022-09-06T22:35:09.836Z,2.58
2022-09-06T22:37:38.061Z,2.60
2022-09-06T22:40:06.989Z,2.65
2022-09-06T22:42:34.965Z,2.70
2022-09-06T22:45:04.116Z,2.92
2022-09-06T22:52:57.104Z,2.85
2022-09-06T22:55:25.120Z,2.80
2022-09-06T22:57:53.481Z,3.40
2022-09-06T23:00:21.740Z,3.20
2022-09-06T23:02:50.051Z,2.38
2022-09-06T23:05:18.291Z,2.45
2022-09-06T23:07:46.515Z,2.70
2022-09-06T23:10:14.344Z,3.05
2022-09-06T23:12:42.339Z,2.83
2022-09-06T23:15:10.651Z,2.67
2022-09-06T23:17:39.007Z,2.88
2022-09-06T23:20:07.622Z,2.40
2022-09-06T23:22:35.963Z,2.97
2022-09-06T23:25:04.498Z,3.33
2022-09-06T23:27:32.426Z,3.45
2022-09-06T23:30:02.757Z,3.40
2022-09-06T23:32:33.215Z,2.80
2022-09-06T23:35:01.540Z,2.90
2022-09-06T23:37:29.379Z,2.85
2022-09-06T23:39:57.779Z,2.42
2022-09-06T23:42:25.692Z,3.05
2022-09-06T23:44:57.456Z,3.08
2022-09-06T23:47:25.537Z,3.42
2022-09-06T23:49:53.703Z,3.08
2022-09-06T23:52:21.723Z,2.90
2022-09-06T23:54:50.046Z,2.72
2022-09-06T23:57:18.343Z,3.35
2022-09-06T23:59:46.638Z,2.60
